Time;durP1;ratioP1;P1;durP2;ratioP2;P2;SDS_P1;SDS_P2;PMS_P1;PMS_P2;Temp;Humidity;BMP_temperature;BMP_pressure;BME280_temperature;BME280_humidity;BME280_pressure;Samples;Min_cycle;Max_cycle;Signal;HPM_P1;HPM_P2
2022/01/18 00:00:44;;;;;;;25.00;6.80;;;;;;;-3.11;82.17;99691.61;108448;1274;22662;-79
2022/01/18 00:03:11;;;;;;;21.10;6.00;;;;;;;-3.08;81.85;99693.17;108454;1274;22560;-76
2022/01/18 00:05:38;;;;;;;23.70;6.60;;;;;;;-3.05;82.32;99693.52;108461;1274;22699;-75
2022/01/18 00:08:05;;;;;;;23.30;6.10;;;;;;;-3.04;82.68;99698.47;108457;1274;22704;-74
2022/01/18 00:10:33;;;;;;;25.10;6.20;;;;;;;-3.06;82.87;99703.25;108459;1274;22590;-75
2022/01/18 00:15:55;;;;;;;17.20;5.90;;;;;;;-3.09;82.50;99697.42;108428;1274;22566;-75
2022/01/18 00:18:23;;;;;;;22.60;6.10;;;;;;;-3.12;82.39;99698.77;108457;1274;22633;-76
2022/01/18 00:23:38;;;;;;;23.80;5.80;;;;;;;-3.11;82.00;99708.81;108447;1274;22583;-76
2022/01/18 00:26:08;;;;;;;22.60;5.90;;;;;;;-3.09;82.18;99711.40;108448;1274;22540;-76
2022/01/18 00:28:38;;;;;;;23.40;5.90;;;;;;;-3.09;82.42;99712.59;108449;1274;22577;-75
2022/01/18 00:33:59;;;;;;;22.40;7.10;;;;;;;-3.14;82.60;99711.88;108441;1274;22640;-76
2022/01/18 00:37:23;;;;;;;17.50;5.70;;;;;;;-3.16;82.18;99708.45;108442;1274;22550;-76
2022/01/18 00:39:15;;;;;;;22.70;6.30;;;;;;;-3.19;82.19;99716.61;108418;1274;22769;-77
2022/01/18 00:41:42;;;;;;;17.10;5.60;;;;;;;-3.21;82.22;99717.77;108453;1274;22625;-76
2022/01/18 00:44:10;;;;;;;21.40;6.10;;;;;;;-3.23;82.31;99725.11;108437;1274;22857;-76
2022/01/18 00:46:39;;;;;;;23.20;5.30;;;;;;;-3.18;82.15;99725.98;108442;1273;22678;-76
2022/01/18 00:49:07;;;;;;;16.30;5.30;;;;;;;-3.15;82.12;99729.09;108437;1274;22684;-76
2022/01/18 00:51:38;;;;;;;25.80;6.60;;;;;;;-3.14;82.34;99735.39;108460;1273;22568;-76
2022/01/18 00:54:08;;;;;;;16.10;5.70;;;;;;;-3.15;82.83;99738.98;108450;1274;22616;-76
2022/01/18 00:56:40;;;;;;;17.60;5.90;;;;;;;-3.17;82.76;99748.66;108441;1274;22566;-76
2022/01/18 00:59:08;;;;;;;18.30;5.50;;;;;;;-3.18;82.66;99754.61;108462;1273;22620;-76
2022/01/18 01:01:36;;;;;;;16.40;5.60;;;;;;;-3.19;82.20;99758.69;108462;1274;24107;-75
2022/01/18 01:04:04;;;;;;;19.80;5.30;;;;;;;-3.20;82.03;99762.77;108447;1274;22629;-77
2022/01/18 01:06:33;;;;;;;18.40;5.70;;;;;;;-3.19;82.21;99764.48;108459;1274;22549;-76
2022/01/18 01:09:00;;;;;;;24.20;5.70;;;;;;;-3.16;82.08;99770.98;108466;1274;22552;-76
2022/01/18 01:11:28;;;;;;;17.40;4.60;;;;;;;-3.15;82.62;99772.36;108442;1273;22711;-75
2022/01/18 01:14:00;;;;;;;18.40;5.20;;;;;;;-3.18;82.75;99771.81;108445;1274;22553;-76
2022/01/18 01:35:31;;;;;;;16.30;4.70;;;;;;;-3.24;82.82;99786.61;108459;1273;24383;-78
2022/01/18 01:43:36;;;;;;;11.40;3.40;;;;;;;-3.28;82.32;99777.53;108487;1273;22555;-76
2022/01/18 01:46:04;;;;;;;16.40;3.90;;;;;;;-3.29;82.17;99779.05;108466;1274;22624;-79
2022/01/18 01:48:31;;;;;;;20.60;4.70;;;;;;;-3.32;82.31;99783.30;108437;1273;22566;-77
2022/01/18 01:51:02;;;;;;;19.60;5.70;;;;;;;-3.28;82.14;99783.31;108444;1273;22566;-75
2022/01/18 01:53:31;;;;;;;20.40;4.70;;;;;;;-3.26;82.38;99784.87;108487;1273;22620;-77
2022/01/18 01:55:59;;;;;;;16.60;4.20;;;;;;;-3.24;82.61;99780.98;108553;1274;22674;-78
2022/01/18 01:58:29;;;;;;;15.00;4.60;;;;;;;-3.23;82.90;99778.95;108474;1273;22568;-78
2022/01/18 02:00:58;;;;;;;15.70;5.60;;;;;;;-3.22;82.90;99780.48;108435;1273;22649;-78
2022/01/18 02:03:25;;;;;;;18.50;4.90;;;;;;;-3.24;82.70;99784.05;108448;1273;22549;-78
2022/01/18 02:05:52;;;;;;;13.20;4.50;;;;;;;-3.26;82.41;99785.39;108447;1273;22700;-75
2022/01/18 02:08:20;;;;;;;13.80;4.40;;;;;;;-3.29;82.30;99777.34;108436;1274;22620;-77
2022/01/18 02:10:47;;;;;;;19.00;5.40;;;;;;;-3.31;82.26;99766.95;108438;1273;22562;-76
2022/01/18 02:13:15;;;;;;;23.60;7.10;;;;;;;-3.28;82.12;99764.92;108464;1273;22552;-77
2022/01/18 02:16:09;;;;;;;20.60;6.40;;;;;;;-3.28;82.33;99764.92;108462;1273;22553;-77
2022/01/18 02:21:46;;;;;;;20.60;6.90;;;;;;;-3.30;82.93;99759.28;108445;1274;24089;-77
2022/01/18 02:24:07;;;;;;;18.90;5.80;;;;;;;-3.32;82.92;99763.20;108433;1273;22584;-77
2022/01/18 02:26:35;;;;;;;18.00;5.70;;;;;;;-3.34;82.73;99766.07;108457;1274;22551;-77
2022/01/18 02:29:06;;;;;;;24.30;6.70;;;;;;;-3.37;82.68;99770.46;108446;1274;22553;-77
2022/01/18 02:31:34;;;;;;;18.30;6.30;;;;;;;-3.39;82.27;99768.22;108449;1274;22588;-76
2022/01/18 02:34:03;;;;;;;20.10;7.00;;;;;;;-3.38;82.18;99761.59;108435;1274;22693;-77
2022/01/18 02:36:31;;;;;;;15.70;6.00;;;;;;;-3.37;82.49;99754.11;108451;1273;24387;-77
2022/01/18 02:38:58;;;;;;;17.10;5.80;;;;;;;-3.39;82.97;99748.31;108476;1274;22564;-76
2022/01/18 02:41:31;;;;;;;18.90;5.70;;;;;;;-3.42;83.00;99749.83;108457;1274;22563;-76
2022/01/18 02:44:05;;;;;;;14.60;5.30;;;;;;;-3.47;82.95;99756.08;108440;1273;22541;-77
2022/01/18 02:46:33;;;;;;;16.20;4.90;;;;;;;-3.51;82.89;99756.23;108436;1274;22555;-75
2022/01/18 02:49:01;;;;;;;19.30;5.70;;;;;;;-3.53;82.49;99756.70;108432;1274;22575;-77
2022/01/18 02:51:29;;;;;;;21.40;6.60;;;;;;;-3.54;82.26;99759.75;108464;1274;22684;-76
2022/01/18 02:54:00;;;;;;;20.80;7.00;;;;;;;-3.52;82.31;99756.90;108421;1274;22622;-75
2022/01/18 02:56:31;;;;;;;22.80;6.70;;;;;;;-3.50;82.58;99762.36;108432;1273;22850;-77
2022/01/18 02:59:10;;;;;;;15.30;4.90;;;;;;;-3.50;83.03;99759.13;108439;1274;22565;-76
2022/01/18 03:04:23;;;;;;;18.20;5.40;;;;;;;-3.55;83.31;99770.64;108424;1274;22564;-75
2022/01/18 03:06:50;;;;;;;12.20;5.10;;;;;;;-3.55;82.84;99773.55;108430;1273;22553;-77
2022/01/18 03:09:17;;;;;;;20.30;5.40;;;;;;;-3.57;82.81;99777.25;108421;1273;22796;-76
2022/01/18 03:11:44;;;;;;;18.20;6.30;;;;;;;-3.58;82.51;99779.98;108398;1273;22548;-76
2022/01/18 03:14:12;;;;;;;22.00;6.70;;;;;;;-3.55;82.56;99781.20;108444;1274;25296;-75
2022/01/18 03:16:38;;;;;;;18.60;5.60;;;;;;;-3.53;82.65;99779.86;108435;1274;22574;-77
2022/01/18 03:19:05;;;;;;;17.30;5.10;;;;;;;-3.53;83.12;99786.85;108442;1274;22681;-75
2022/01/18 03:21:32;;;;;;;17.70;5.60;;;;;;;-3.55;83.16;99795.52;108453;1274;22583;-75
2022/01/18 03:24:13;;;;;;;19.80;6.50;;;;;;;-3.57;82.90;99796.84;108407;1274;22649;-75
2022/01/18 03:28:04;;;;;;;21.20;6.40;;;;;;;-3.58;83.00;99801.09;108418;1273;22638;-75
2022/01/18 03:29:27;;;;;;;21.40;6.70;;;;;;;-3.62;82.76;99800.89;108441;1273;22553;-77
2022/01/18 03:31:55;;;;;;;24.70;6.80;;;;;;;-3.64;82.50;99802.39;108414;1273;22620;-76
2022/01/18 03:34:22;;;;;;;26.40;6.90;;;;;;;-3.61;82.53;99806.36;108429;1274;22566;-76
2022/01/18 03:36:49;;;;;;;15.40;5.50;;;;;;;-3.60;82.49;99812.67;108453;1273;22553;-76
2022/01/18 03:39:16;;;;;;;14.50;5.00;;;;;;;-3.59;83.13;99816.42;108433;1273;24433;-75
2022/01/18 03:41:43;;;;;;;18.80;5.40;;;;;;;-3.60;83.29;99820.50;108437;1274;22551;-75
2022/01/18 03:44:10;;;;;;;16.20;5.90;;;;;;;-3.62;83.32;99820.80;108422;1274;22563;-76
2022/01/18 03:46:37;;;;;;;17.60;5.50;;;;;;;-3.62;83.16;99826.42;108433;1274;25429;-76
2022/01/18 03:49:05;;;;;;;18.90;6.10;;;;;;;-3.63;82.74;99833.73;108428;1273;25119;-76
2022/01/18 03:51:32;;;;;;;20.10;6.20;;;;;;;-3.63;82.61;99839.69;108429;1273;22572;-77
2022/01/18 03:53:59;;;;;;;22.60;6.40;;;;;;;-3.58;82.54;99837.70;108408;1274;25467;-77
2022/01/18 03:56:27;;;;;;;18.30;6.30;;;;;;;-3.54;82.88;99840.64;108427;1274;22577;-77
2022/01/18 03:58:54;;;;;;;17.20;6.10;;;;;;;-3.50;83.23;99837.30;108431;1274;22540;-76
2022/01/18 04:01:21;;;;;;;18.30;5.90;;;;;;;-3.49;83.72;99838.83;108411;1273;22640;-76
2022/01/18 04:03:48;;;;;;;18.20;5.10;;;;;;;-3.49;83.46;99836.95;108435;1274;23152;-77
2022/01/18 04:06:15;;;;;;;21.10;6.50;;;;;;;-3.49;83.09;99841.71;108426;1274;22617;-77
2022/01/18 04:08:42;;;;;;;17.40;5.00;;;;;;;-3.50;83.03;99841.21;108422;1273;22707;-77
2022/01/18 04:11:09;;;;;;;17.30;6.30;;;;;;;-3.50;83.01;99844.79;108434;1274;22548;-76
2022/01/18 04:13:36;;;;;;;20.30;7.10;;;;;;;-3.45;82.82;99843.65;108432;1274;22572;-75
2022/01/18 04:16:03;;;;;;;13.30;5.90;;;;;;;-3.39;83.31;99852.55;108440;1274;24218;-75
2022/01/18 04:18:46;;;;;;;16.10;5.40;;;;;;;-3.33;83.44;99850.73;108421;1273;22766;-77
2022/01/18 04:29:11;;;;;;;24.90;6.00;;;;;;;-3.16;83.39;99868.63;108411;1273;22708;-77
2022/01/18 04:31:38;;;;;;;19.10;6.80;;;;;;;-3.07;83.42;99876.72;108427;1274;22567;-77
2022/01/18 04:34:05;;;;;;;21.40;7.30;;;;;;;-2.99;83.50;99879.34;108420;1274;22710;-76
2022/01/18 04:36:32;;;;;;;22.50;5.60;;;;;;;-2.93;83.92;99884.16;108437;1273;22557;-75
2022/01/18 04:39:00;;;;;;;19.60;5.70;;;;;;;-2.89;84.21;99887.96;108440;1273;22647;-78
2022/01/18 04:41:29;;;;;;;13.50;4.80;;;;;;;-2.84;84.18;99891.91;108439;1273;22671;-77
2022/01/18 04:49:15;;;;;;;13.40;3.70;;;;;;;-2.70;83.72;99898.86;108429;1273;22569;-77
2022/01/18 04:51:44;;;;;;;19.00;5.90;;;;;;;-2.62;83.79;99892.79;108454;1273;22562;-77
2022/01/18 04:54:12;;;;;;;15.20;4.50;;;;;;;-2.54;84.05;99892.16;108414;1273;22629;-76
2022/01/18 04:59:09;;;;;;;11.40;3.20;;;;;;;-2.42;84.29;99892.61;108450;1273;22670;-77
2022/01/18 05:01:39;;;;;;;14.70;3.30;;;;;;;-2.36;84.52;99887.85;108412;1273;22617;-78
2022/01/18 05:04:06;;;;;;;10.80;3.20;;;;;;;-2.35;84.26;99879.33;108496;1273;22700;-77
2022/01/18 05:06:34;;;;;;;15.30;3.60;;;;;;;-2.35;84.21;99886.16;108488;1273;22580;-75
2022/01/18 05:09:07;;;;;;;9.30;2.30;;;;;;;-2.35;84.21;99889.23;108458;1273;22562;-76
2022/01/18 05:11:47;;;;;;;;;;;;;;;-2.34;83.91;99893.67;108439;1272;22545;-77
2022/01/18 05:14:35;;;;;;;15.00;3.70;;;;;;;-2.30;83.98;99897.44;108520;1273;22626;-76
2022/01/18 05:17:12;;;;;;;18.60;4.30;;;;;;;-2.25;83.90;99901.41;108529;1273;22566;-76
2022/01/18 05:20:22;;;;;;;9.10;2.80;;;;;;;-2.20;84.33;99894.44;108434;1273;22564;-76
2022/01/18 05:23:02;;;;;;;14.90;3.50;;;;;;;-2.18;84.27;99886.61;108434;1273;22623;-76
2022/01/18 05:25:32;;;;;;;13.90;3.10;;;;;;;-2.19;84.23;99886.42;108440;1273;22556;-77
2022/01/18 05:28:01;;;;;;;7.40;2.00;;;;;;;-2.16;83.85;99894.29;108445;1274;24234;-77
2022/01/18 05:30:28;;;;;;;13.50;3.40;;;;;;;-2.12;83.74;99896.52;108428;1273;25008;-75
2022/01/18 05:32:55;;;;;;;17.60;3.30;;;;;;;-2.09;83.81;99895.18;108474;1273;22656;-77
2022/01/18 05:35:23;;;;;;;12.60;3.90;;;;;;;-2.07;83.82;99901.17;108469;1273;22715;-77
2022/01/18 05:37:50;;;;;;;14.50;3.60;;;;;;;-2.05;83.84;99905.61;108429;1273;22633;-77
2022/01/18 05:40:19;;;;;;;9.90;3.40;;;;;;;-2.06;83.75;99912.45;108447;1273;22646;-77
2022/01/18 05:42:46;;;;;;;9.20;2.40;;;;;;;-2.09;83.78;99917.20;108501;1273;22612;-77
2022/01/18 05:45:13;;;;;;;8.80;2.80;;;;;;;-2.08;83.53;99924.39;108465;1273;22535;-77
2022/01/18 05:47:41;;;;;;;10.40;3.40;;;;;;;-2.07;83.44;99928.15;108439;1273;22561;-76
2022/01/18 05:50:11;;;;;;;16.40;3.40;;;;;;;-2.05;83.35;99931.40;108462;1273;22580;-76
2022/01/18 05:52:38;;;;;;;14.20;3.90;;;;;;;-2.03;83.40;99928.67;108451;1273;22740;-77
2022/01/18 05:55:06;;;;;;;18.50;4.10;;;;;;;-1.97;83.58;99925.80;108440;1273;22569;-78
2022/01/18 05:57:33;;;;;;;11.50;2.80;;;;;;;-1.97;83.72;99928.70;108454;1273;22557;-76
2022/01/18 06:00:07;;;;;;;8.00;2.70;;;;;;;-1.97;83.78;99932.46;108455;1273;22550;-76
2022/01/18 06:02:53;;;;;;;12.20;3.00;;;;;;;-1.96;84.00;99933.32;108395;1273;22696;-76
2022/01/18 06:08:08;;;;;;;11.50;3.00;;;;;;;-1.95;83.70;99940.33;108445;1273;22717;-77
2022/01/18 06:10:35;;;;;;;14.00;3.20;;;;;;;-1.97;83.47;99940.31;108430;1273;22560;-76
2022/01/18 06:13:03;;;;;;;10.50;3.20;;;;;;;-1.94;83.47;99941.36;108435;1274;22562;-76
2022/01/18 06:15:31;;;;;;;13.20;3.00;;;;;;;-1.91;83.45;99943.09;108479;1273;22580;-76
2022/01/18 06:17:58;;;;;;;17.70;3.10;;;;;;;-1.90;83.76;99945.66;108412;1273;23852;-75
2022/01/18 06:20:25;;;;;;;10.70;3.40;;;;;;;-1.89;83.79;99953.52;108437;1273;22553;-77
2022/01/18 06:22:52;;;;;;;16.90;4.10;;;;;;;-1.89;83.82;99956.77;108442;1273;22552;-76
2022/01/18 06:25:20;;;;;;;12.00;4.20;;;;;;;-1.88;83.64;99956.27;108442;1273;22646;-76
2022/01/18 06:27:48;;;;;;;13.30;3.60;;;;;;;-1.88;83.33;99960.02;108444;1273;22535;-75
2022/01/18 06:30:15;;;;;;;11.30;3.50;;;;;;;-1.89;83.16;99957.96;108443;1273;22593;-76
2022/01/18 06:32:45;;;;;;;16.10;4.70;;;;;;;-1.84;83.20;99958.34;108433;1273;22565;-76
2022/01/18 06:35:14;;;;;;;13.10;3.30;;;;;;;-1.84;83.37;99957.46;108434;1273;22636;-75
2022/01/18 06:37:41;;;;;;;11.80;3.80;;;;;;;-1.82;83.71;99959.02;108458;1274;22710;-76
2022/01/18 06:40:10;;;;;;;11.20;3.10;;;;;;;-1.76;83.34;99968.10;108454;1273;22549;-75
2022/01/18 06:42:38;;;;;;;16.00;3.60;;;;;;;-1.83;83.51;99976.44;108464;1273;22563;-75
2022/01/18 06:45:06;;;;;;;13.30;3.60;;;;;;;-1.83;83.32;99981.55;108446;1273;24253;-74
2022/01/18 06:47:34;;;;;;;9.70;3.10;;;;;;;-1.84;83.34;99982.05;108434;1273;22627;-75
2022/01/18 06:50:01;;;;;;;15.20;4.10;;;;;;;-1.83;83.15;99986.50;108428;1273;22602;-75
2022/01/18 06:52:28;;;;;;;10.80;4.30;;;;;;;-1.79;83.23;99986.02;108458;1273;22547;-75
2022/01/18 06:54:55;;;;;;;15.50;4.10;;;;;;;-1.77;83.45;99988.24;108442;1273;22711;-74
2022/01/18 06:57:23;;;;;;;13.90;3.60;;;;;;;-1.73;83.59;100001.09;108428;1274;22552;-75
2022/01/18 06:59:50;;;;;;;17.40;4.60;;;;;;;-1.72;83.80;100001.78;108430;1273;22567;-75
2022/01/18 07:02:17;;;;;;;17.40;4.10;;;;;;;-1.73;83.64;100003.30;108451;1273;22622;-74
2022/01/18 07:04:43;;;;;;;15.40;5.00;;;;;;;-1.76;83.53;100003.80;108438;1274;22553;-74
2022/01/18 07:07:10;;;;;;;13.60;4.90;;;;;;;-1.76;83.35;100007.03;108434;1273;22580;-74
2022/01/18 07:09:37;;;;;;;19.40;4.70;;;;;;;-1.79;83.23;100005.83;108448;1273;22541;-74
2022/01/18 07:12:10;;;;;;;20.20;5.40;;;;;;;-1.76;83.34;100013.87;108450;1273;25430;-74
2022/01/18 07:14:37;;;;;;;27.00;6.10;;;;;;;-1.71;83.37;100017.67;108434;1274;22528;-74
2022/01/18 07:17:05;;;;;;;17.40;4.10;;;;;;;-1.68;83.69;100026.39;108452;1273;22547;-76
2022/01/18 07:19:32;;;;;;;15.70;4.70;;;;;;;-1.65;83.71;100030.70;108457;1273;22553;-74
2022/01/18 07:21:59;;;;;;;9.90;2.90;;;;;;;-1.66;83.69;100031.70;108435;1273;22628;-74
2022/01/18 07:24:42;;;;;;;11.80;3.90;;;;;;;-1.68;83.41;100027.76;108428;1273;22630;-74
2022/01/18 07:27:12;;;;;;;10.50;2.60;;;;;;;-1.68;83.25;100025.88;108386;1274;22626;-75
2022/01/18 07:29:42;;;;;;;15.40;4.60;;;;;;;-1.70;83.22;100027.40;108421;1273;23939;-75
2022/01/18 07:32:10;;;;;;;21.10;5.40;;;;;;;-1.66;83.32;100029.48;108463;1273;22585;-76
2022/01/18 07:34:41;;;;;;;18.10;5.60;;;;;;;-1.63;83.51;100031.39;108451;1274;22576;-75
2022/01/18 07:37:09;;;;;;;13.90;5.10;;;;;;;-1.58;83.68;100033.11;108462;1273;23394;-75
2022/01/18 07:39:36;;;;;;;16.30;4.70;;;;;;;-1.59;83.61;100036.87;108459;1273;22554;-76
2022/01/18 07:42:04;;;;;;;12.20;3.80;;;;;;;-1.58;83.59;100040.28;108438;1274;22695;-75
2022/01/18 07:44:31;;;;;;;14.90;5.00;;;;;;;-1.57;83.34;100046.80;108431;1273;22583;-76
2022/01/18 07:46:58;;;;;;;12.60;4.00;;;;;;;-1.59;83.24;100055.83;108437;1273;22557;-76
2022/01/18 07:49:25;;;;;;;13.80;4.80;;;;;;;-1.59;83.12;100058.55;108437;1274;25486;-75
2022/01/18 07:51:52;;;;;;;15.20;4.90;;;;;;;-1.51;83.20;100066.63;108441;1273;22560;-77
2022/01/18 07:54:19;;;;;;;20.00;6.00;;;;;;;-1.45;83.17;100068.56;108455;1273;22563;-77
2022/01/18 07:56:46;;;;;;;14.10;5.00;;;;;;;-1.44;83.28;100068.40;108436;1273;22713;-79
2022/01/18 07:59:13;;;;;;;21.00;5.80;;;;;;;-1.41;83.44;100072.69;108433;1273;22573;-75
2022/01/18 08:01:42;;;;;;;15.30;6.10;;;;;;;-1.42;83.27;100076.27;108441;1273;22552;-75
2022/01/18 08:04:10;;;;;;;16.90;5.10;;;;;;;-1.42;83.05;100081.73;108430;1273;22596;-75
2022/01/18 08:06:37;;;;;;;13.00;4.60;;;;;;;-1.41;82.89;100081.05;108431;1273;24246;-75
2022/01/18 08:09:04;;;;;;;18.10;4.30;;;;;;;-1.39;82.67;100081.08;108446;1273;22623;-76
2022/01/18 08:11:31;;;;;;;19.50;4.90;;;;;;;-1.34;82.56;100083.33;108450;1273;22547;-75
2022/01/18 08:14:00;;;;;;;15.20;4.50;;;;;;;-1.30;82.87;100088.80;108448;1273;22803;-77
2022/01/18 08:18:57;;;;;;;11.50;3.70;;;;;;;-1.26;83.01;100105.75;108517;1273;22640;-79
2022/01/18 08:21:25;;;;;;;13.70;4.90;;;;;;;-1.27;83.02;100108.33;108444;1273;22568;-76
2022/01/18 08:23:52;;;;;;;21.00;5.80;;;;;;;-1.25;82.83;100113.29;108441;1273;24125;-76
2022/01/18 08:26:19;;;;;;;16.40;5.60;;;;;;;-1.23;82.54;100119.78;108435;1273;22567;-77
2022/01/18 08:28:46;;;;;;;18.80;6.00;;;;;;;-1.22;82.23;100122.36;108429;1273;22560;-76
2022/01/18 08:31:14;;;;;;;20.70;5.30;;;;;;;-1.25;82.09;100125.24;108457;1272;22638;-76
2022/01/18 08:33:41;;;;;;;22.80;6.40;;;;;;;-1.22;82.25;100126.97;108431;1273;22563;-76
2022/01/18 08:36:08;;;;;;;18.50;5.20;;;;;;;-1.18;82.45;100133.33;108448;1273;22617;-78
2022/01/18 08:38:37;;;;;;;20.80;5.00;;;;;;;-1.14;82.71;100140.69;108423;1273;24479;-78
2022/01/18 08:41:04;;;;;;;17.60;5.20;;;;;;;-1.11;82.85;100142.60;108452;1273;22577;-76
2022/01/18 08:43:32;;;;;;;15.30;4.70;;;;;;;-1.06;82.65;100149.64;108452;1273;22587;-78
2022/01/18 08:46:00;;;;;;;14.00;5.10;;;;;;;-1.03;82.44;100149.98;108446;1273;22580;-77
2022/01/18 08:48:27;;;;;;;15.50;5.20;;;;;;;-1.00;82.38;100155.48;108465;1273;23993;-78
2022/01/18 08:50:55;;;;;;;14.50;5.10;;;;;;;-0.95;82.09;100161.50;108425;1273;22546;-74
2022/01/18 08:53:22;;;;;;;23.80;6.30;;;;;;;-0.90;81.95;100164.42;108452;1273;22556;-74
2022/01/18 08:55:49;;;;;;;17.40;5.70;;;;;;;-0.85;82.23;100173.35;108431;1273;22557;-75
2022/01/18 08:58:16;;;;;;;16.70;4.30;;;;;;;-0.83;82.49;100177.65;108437;1273;22583;-74
2022/01/18 09:00:43;;;;;;;26.10;6.70;;;;;;;-0.80;82.45;100179.02;108431;1273;22856;-77
2022/01/18 09:03:10;;;;;;;27.90;9.20;;;;;;;-0.80;82.12;100180.89;108451;1273;25544;-77
2022/01/18 09:05:38;;;;;;;15.90;4.90;;;;;;;-0.76;81.78;100184.00;108466;1273;22553;-77
2022/01/18 09:08:11;;;;;;;13.10;4.60;;;;;;;-0.77;81.27;100188.95;108442;1273;26519;-77
2022/01/18 09:10:39;;;;;;;;;;;;;;;-0.84;81.31;100189.95;108443;1273;22525;-77
2022/01/18 09:13:06;;;;;;;12.70;3.30;;;;;;;-0.82;81.28;100198.19;108469;1273;24279;-75
2022/01/18 09:15:33;;;;;;;17.00;5.50;;;;;;;-0.82;81.01;100205.54;108457;1273;22561;-76
2022/01/18 09:18:00;;;;;;;19.40;5.80;;;;;;;-0.80;81.25;100206.55;108393;1273;22634;-75
2022/01/18 09:20:27;;;;;;;16.00;5.20;;;;;;;-0.74;81.64;100214.81;108440;1273;22561;-76
2022/01/18 09:22:54;;;;;;;18.70;5.20;;;;;;;-0.70;81.89;100216.35;108446;1273;22563;-76
2022/01/18 09:25:24;;;;;;;31.70;6.80;;;;;;;-0.67;82.07;100218.61;108450;1273;22566;-77
2022/01/18 09:27:51;;;;;;;22.20;7.10;;;;;;;-0.66;81.73;100221.87;108445;1273;22712;-77
2022/01/18 09:30:19;;;;;;;23.10;7.10;;;;;;;-0.67;81.60;100226.14;108464;1274;22556;-75
2022/01/18 09:32:47;;;;;;;17.90;5.20;;;;;;;-0.66;81.45;100223.75;108451;1273;22553;-75
2022/01/18 09:35:15;;;;;;;16.40;5.40;;;;;;;-0.62;80.99;100223.23;108422;1273;22573;-76
2022/01/18 09:37:43;;;;;;;20.50;6.50;;;;;;;-0.60;80.80;100224.45;108448;1273;22553;-76
2022/01/18 09:40:14;;;;;;;14.40;4.90;;;;;;;-0.57;80.81;100230.98;108467;1273;22547;-77
2022/01/18 09:42:43;;;;;;;18.60;5.20;;;;;;;-0.57;81.17;100235.79;108447;1273;22647;-77
2022/01/18 09:45:15;;;;;;;17.10;5.20;;;;;;;-0.54;81.49;100242.46;108445;1273;22556;-77
2022/01/18 09:47:45;;;;;;;21.80;6.80;;;;;;;-0.60;81.11;100237.81;108455;1273;25376;-75
2022/01/18 09:50:16;;;;;;;20.60;6.20;;;;;;;-0.61;81.09;100237.45;108452;1273;22601;-76
2022/01/18 09:52:43;;;;;;;13.50;5.00;;;;;;;-0.59;80.63;100234.56;108458;1273;22572;-75
2022/01/18 09:55:10;;;;;;;15.20;4.60;;;;;;;-0.62;80.21;100236.43;108419;1273;22556;-76
2022/01/18 09:57:38;;;;;;;13.00;4.90;;;;;;;-0.67;80.29;100239.83;108434;1272;22560;-77
2022/01/18 10:00:06;;;;;;;11.60;3.70;;;;;;;-0.66;79.98;100236.41;108466;1273;22554;-76
2022/01/18 10:02:33;;;;;;;19.30;6.00;;;;;;;-0.65;79.72;100236.26;108457;1273;22614;-76
2022/01/18 10:05:27;;;;;;;20.80;4.80;;;;;;;-0.65;80.13;100236.75;108465;1273;22646;-76
2022/01/18 10:07:59;;;;;;;29.70;7.40;;;;;;;-0.65;80.22;100237.95;108439;1273;22581;-76
2022/01/18 10:10:40;;;;;;;25.00;8.70;;;;;;;-0.67;80.40;100238.45;108452;1273;22668;-75
2022/01/18 10:13:08;;;;;;;16.70;6.10;;;;;;;-0.65;80.23;100239.50;108452;1273;22772;-76
2022/01/18 10:15:35;;;;;;;15.00;4.60;;;;;;;-0.60;79.86;100241.23;108437;1273;22699;-76
2022/01/18 10:18:07;;;;;;;19.20;6.30;;;;;;;-0.62;79.63;100242.08;108450;1273;22560;-77
2022/01/18 10:20:52;;;;;;;20.00;5.80;;;;;;;-0.64;79.76;100247.71;108445;1273;22600;-76
2022/01/18 10:23:24;;;;;;;23.60;6.90;;;;;;;-0.66;79.68;100244.28;108429;1273;25498;-75
2022/01/18 10:25:52;;;;;;;27.20;7.30;;;;;;;-0.63;80.02;100246.18;108453;1273;22556;-75
2022/01/18 10:28:34;;;;;;;25.20;8.80;;;;;;;-0.61;80.40;100246.86;108450;1273;22556;-77
2022/01/18 10:31:22;;;;;;;31.40;9.20;;;;;;;-0.58;80.90;100250.14;108451;1273;23202;-79
2022/01/18 10:34:08;;;;;;;18.20;6.20;;;;;;;-0.58;80.74;100253.05;108457;1273;22546;-77
2022/01/18 10:36:35;;;;;;;16.40;5.20;;;;;;;-0.56;80.35;100251.88;108459;1273;22550;-78
2022/01/18 10:39:05;;;;;;;11.00;3.80;;;;;;;-0.59;79.62;100248.77;108449;1273;22656;-77
2022/01/18 10:41:34;;;;;;;15.60;4.60;;;;;;;-0.63;79.30;100249.09;108470;1273;22634;-76
2022/01/18 10:44:06;;;;;;;20.10;5.80;;;;;;;-0.65;79.53;100248.57;108469;1273;22551;-76
2022/01/18 10:46:41;;;;;;;21.50;5.70;;;;;;;-0.63;80.02;100246.19;108461;1271;26773;-76
2022/01/18 10:49:09;;;;;;;20.20;6.70;;;;;;;-0.59;80.11;100251.33;108442;1274;22574;-77
2022/01/18 10:51:39;;;;;;;15.40;4.50;;;;;;;-0.55;79.66;100251.35;108463;1272;22552;-76
2022/01/18 10:54:09;;;;;;;17.80;4.50;;;;;;;-0.56;78.84;100245.53;108455;1273;24507;-77
2022/01/18 10:56:44;;;;;;;11.20;4.10;;;;;;;-0.60;78.70;100243.12;108467;1273;22627;-77
2022/01/18 10:59:23;;;;;;;15.50;4.70;;;;;;;-0.61;78.26;100242.94;108408;1274;24231;-75
2022/01/18 11:02:14;;;;;;;15.60;5.00;;;;;;;-0.62;78.41;100239.50;108468;1273;22565;-76
2022/01/18 11:05:10;;;;;;;16.70;4.70;;;;;;;-0.53;78.95;100242.13;108479;1273;22563;-77
2022/01/18 11:07:38;;;;;;;19.90;7.00;;;;;;;-0.52;78.63;100244.19;108473;1273;22577;-76
2022/01/18 11:10:08;;;;;;;19.20;5.90;;;;;;;-0.58;78.49;100246.89;108493;1273;22637;-75
2022/01/18 11:13:04;;;;;;;14.80;4.60;;;;;;;-0.59;78.08;100250.65;108452;1273;22566;-75
2022/01/18 11:15:33;;;;;;;12.70;4.00;;;;;;;-0.64;78.18;100255.58;108466;1273;22595;-75
2022/01/18 11:18:03;;;;;;;14.30;4.60;;;;;;;-0.66;78.16;100254.21;108447;1273;22560;-77
2022/01/18 11:20:39;;;;;;;17.00;4.50;;;;;;;-0.66;78.28;100251.98;108432;1274;22585;-75
2022/01/18 11:23:07;;;;;;;13.90;4.80;;;;;;;-0.66;78.27;100249.25;108442;1273;22659;-78
2022/01/18 11:25:36;;;;;;;21.70;6.60;;;;;;;-0.64;77.72;100252.33;108472;1274;22566;-77
2022/01/18 11:28:06;;;;;;;20.90;8.70;;;;;;;-0.64;78.39;100255.60;108451;1273;22546;-75
2022/01/18 11:30:36;;;;;;;21.10;7.70;;;;;;;-0.62;78.88;100259.01;108459;1273;25332;-76
2022/01/18 11:33:10;;;;;;;17.90;6.70;;;;;;;-0.60;79.35;100265.52;108484;1273;22555;-76
2022/01/18 11:35:42;;;;;;;23.30;7.40;;;;;;;-0.58;79.36;100267.94;108451;1273;22570;-76
2022/01/18 11:38:34;;;;;;;16.90;6.00;;;;;;;-0.54;78.98;100265.73;108447;1273;22614;-75
2022/01/18 11:41:05;;;;;;;18.20;5.90;;;;;;;-0.50;78.51;100261.64;108449;1274;22553;-75
2022/01/18 11:43:33;;;;;;;17.00;5.70;;;;;;;-0.50;78.11;100264.21;108464;1273;22565;-75
2022/01/18 11:46:18;;;;;;;15.70;5.90;;;;;;;-0.56;78.05;100269.15;108433;1273;25513;-76
2022/01/18 11:48:47;;;;;;;18.20;6.70;;;;;;;-0.57;77.72;100279.92;108446;1273;22554;-76
2022/01/18 11:51:18;;;;;;;20.80;8.10;;;;;;;-0.57;77.79;100282.31;108436;1273;23498;-75
2022/01/18 11:53:55;;;;;;;21.50;6.50;;;;;;;-0.54;77.96;100285.09;108440;1273;22579;-74
2022/01/18 11:56:42;;;;;;;25.20;7.00;;;;;;;-0.50;78.24;100288.52;108446;1273;22556;-76
2022/01/18 11:59:18;;;;;;;18.00;6.00;;;;;;;-0.46;78.65;100287.52;108454;1273;25416;-75
2022/01/18 12:01:56;;;;;;;33.50;10.10;;;;;;;-0.46;78.60;100288.38;108431;1273;22598;-76
2022/01/18 12:04:40;;;;;;;21.20;6.70;;;;;;;-0.44;78.10;100289.23;108426;1274;22550;-76
2022/01/18 12:07:08;;;;;;;21.10;7.80;;;;;;;-0.44;77.97;100288.89;108440;1273;22538;-76
2022/01/18 12:09:41;;;;;;;21.00;7.40;;;;;;;-0.46;77.92;100294.55;108440;1273;22565;-75
2022/01/18 12:12:42;;;;;;;21.40;7.00;;;;;;;-0.43;77.74;100296.59;108450;1273;22553;-75
2022/01/18 12:15:15;;;;;;;16.60;5.50;;;;;;;-0.46;77.48;100302.59;108460;1273;22594;-75
2022/01/18 12:17:54;;;;;;;14.40;4.80;;;;;;;-0.42;77.65;100303.28;108453;1273;22568;-75
2022/01/18 12:20:46;;;;;;;16.00;4.10;;;;;;;-0.45;77.82;100307.55;108432;1274;22571;-75
2022/01/18 12:23:28;;;;;;;15.00;5.00;;;;;;;-0.48;77.77;100305.48;108446;1273;25323;-75
2022/01/18 12:26:02;;;;;;;12.90;5.30;;;;;;;-0.53;77.41;100308.54;108435;1273;22588;-76
2022/01/18 12:31:53;;;;;;;15.40;4.40;;;;;;;-0.63;76.99;100310.52;108441;1274;22548;-76